createdAt,value
2018-11-22T00:03:02.119Z,19.37
2018-11-22T00:08:01.358Z,20.63
2018-11-22T00:13:00.005Z,18.33
2018-11-22T00:17:59.416Z,21.30
2018-11-22T00:22:58.054Z,19.30
2018-11-22T00:27:56.745Z,22.20
2018-11-22T00:32:55.395Z,20.20
2018-11-22T00:37:54.410Z,21.23
2018-11-22T00:42:53.213Z,18.37
2018-11-22T00:47:51.872Z,20.93
2018-11-22T00:52:51.158Z,20.07
2018-11-22T00:57:50.651Z,19.20
2018-11-22T01:02:49.554Z,19.60
2018-11-22T01:07:48.460Z,21.30
2018-11-22T01:12:48.086Z,20.60
2018-11-22T01:17:46.733Z,19.10
2018-11-22T01:22:45.893Z,19.60
2018-11-22T01:27:44.529Z,19.30
2018-11-22T01:32:44.120Z,17.40
2018-11-22T01:37:43.229Z,18.40
2018-11-22T01:42:41.880Z,19.07
2018-11-22T01:47:40.535Z,19.23
2018-11-22T01:52:39.741Z,20.30
2018-11-22T01:57:38.681Z,21.57
2018-11-22T02:02:37.304Z,18.47
2018-11-22T02:07:35.984Z,20.73
2018-11-22T02:12:34.641Z,19.47
2018-11-22T02:17:33.293Z,19.40
2018-11-22T02:22:31.932Z,19.53
2018-11-22T02:27:30.567Z,18.80
2018-11-22T02:32:29.255Z,20.37
2018-11-22T02:37:27.936Z,21.00
2018-11-22T02:42:26.571Z,19.57
2018-11-22T02:47:25.232Z,21.37
2018-11-22T02:52:24.147Z,19.23
2018-11-22T02:57:22.813Z,20.97
2018-11-22T03:02:21.483Z,21.07
2018-11-22T03:07:20.114Z,19.40
2018-11-22T03:12:18.785Z,21.80
2018-11-22T03:17:17.465Z,21.27
2018-11-22T03:22:16.183Z,19.70
2018-11-22T03:27:14.813Z,21.50
2018-11-22T03:32:13.473Z,21.43
2018-11-22T03:37:12.143Z,22.00
2018-11-22T03:42:10.798Z,20.60
2018-11-22T03:47:09.419Z,22.03
2018-11-22T03:52:08.277Z,22.67
2018-11-22T03:57:06.918Z,20.07
2018-11-22T04:02:05.882Z,20.97
2018-11-22T04:07:04.533Z,21.03
2018-11-22T04:12:03.204Z,19.53
2018-11-22T04:17:01.835Z,20.53
2018-11-22T04:22:00.500Z,19.80
2018-11-22T04:26:59.172Z,20.50
2018-11-22T04:31:57.800Z,19.50
2018-11-22T04:36:56.440Z,21.77
2018-11-22T04:41:55.115Z,22.63
2018-11-22T04:46:53.788Z,21.47
2018-11-22T04:51:52.428Z,20.80
2018-11-22T04:56:51.090Z,20.97
2018-11-22T05:01:49.789Z,23.50
2018-11-22T05:06:48.441Z,21.63
2018-11-22T05:11:47.116Z,22.10
2018-11-22T05:16:45.788Z,22.67
2018-11-22T05:21:44.427Z,20.93
2018-11-22T05:26:43.089Z,20.33
2018-11-22T05:31:41.718Z,20.67
2018-11-22T05:36:40.374Z,21.07
2018-11-22T05:41:39.617Z,20.83
2018-11-22T05:46:38.594Z,20.33
2018-11-22T05:51:37.256Z,19.70
2018-11-22T05:56:35.929Z,22.03
2018-11-22T06:01:34.551Z,18.47
2018-11-22T06:06:33.202Z,20.57
2018-11-22T06:11:31.940Z,19.27
2018-11-22T06:16:30.538Z,20.50
2018-11-22T06:21:29.179Z,22.57
2018-11-22T06:26:27.821Z,23.23
2018-11-22T06:31:26.457Z,21.90
2018-11-22T06:36:25.120Z,21.80
2018-11-22T06:41:23.808Z,22.80
2018-11-22T06:46:22.436Z,19.70
2018-11-22T06:51:21.093Z,20.93
2018-11-22T06:56:19.756Z,19.83
2018-11-22T07:01:18.501Z,21.20
2018-11-22T07:06:17.160Z,19.03
2018-11-22T07:11:15.826Z,20.80
2018-11-22T07:16:14.463Z,20.50
2018-11-22T07:21:13.404Z,20.27
2018-11-22T07:26:12.064Z,19.70
2018-11-22T07:31:10.712Z,22.40
2018-11-22T07:36:10.137Z,20.80
2018-11-22T07:41:08.795Z,19.40
2018-11-22T07:46:07.989Z,18.20
2018-11-22T12:20:36.552Z,19.83
2018-11-22T12:25:41.667Z,19.57
2018-11-22T12:30:40.298Z,19.63
2018-11-22T12:35:46.217Z,20.73
2018-11-22T12:40:47.236Z,19.57
2018-11-22T12:45:45.916Z,20.30
2018-11-22T12:50:44.596Z,20.00
2018-11-22T12:55:43.192Z,22.23
2018-11-22T13:00:41.946Z,19.47
2018-11-22T13:05:40.605Z,19.53
2018-11-22T13:10:39.314Z,20.73
2018-11-22T13:15:37.911Z,21.57
2018-11-22T13:20:36.604Z,19.63
2018-11-22T13:25:35.201Z,21.83
2018-11-22T13:30:33.809Z,21.10
2018-11-22T13:35:32.482Z,20.20
2018-11-22T13:40:31.149Z,19.77
2018-11-22T13:45:29.932Z,21.20
2018-11-22T13:50:31.733Z,20.27
2018-11-22T13:55:30.736Z,19.77
2018-11-22T14:00:31.984Z,20.73
2018-11-22T14:05:30.677Z,20.17
2018-11-22T14:10:29.466Z,21.93
2018-11-22T14:15:29.510Z,22.77
2018-11-22T14:20:29.616Z,23.03
2018-11-22T14:25:28.432Z,20.70
2018-11-22T14:30:30.819Z,20.83
2018-11-22T14:35:29.426Z,22.20
2018-11-22T14:40:29.457Z,23.00
2018-11-22T14:45:28.880Z,21.80
2018-11-22T14:50:30.652Z,25.50
2018-11-22T14:55:29.249Z,20.60
2018-11-22T15:00:27.939Z,20.80
2018-11-22T15:05:26.556Z,21.43
2018-11-22T15:10:25.224Z,22.47
2018-11-22T15:15:25.068Z,22.50
2018-11-22T15:20:23.792Z,23.20
2018-11-22T15:25:24.745Z,23.70
2018-11-22T15:30:24.859Z,21.77
2018-11-22T15:35:24.708Z,22.57
2018-11-22T15:40:24.429Z,23.73
2018-11-22T15:45:24.465Z,22.90
2018-11-22T15:50:24.500Z,23.53
2018-11-22T15:55:23.700Z,22.20
2018-11-22T16:00:26.104Z,21.83
2018-11-22T16:05:25.621Z,23.30
2018-11-22T16:10:26.828Z,23.37
2018-11-22T16:15:29.380Z,23.47
2018-11-22T16:20:28.012Z,23.67
2018-11-22T16:25:26.655Z,23.43
2018-11-22T16:30:26.684Z,25.40
2018-11-22T16:35:32.828Z,24.90
2018-11-22T16:40:34.652Z,22.50
2018-11-22T16:45:34.785Z,23.10
2018-11-22T16:50:35.063Z,27.70
2018-11-22T16:55:33.838Z,28.60
2018-11-22T17:00:34.698Z,25.57
2018-11-22T17:05:33.876Z,22.50
2018-11-22T17:10:33.092Z,25.10
2018-11-22T17:15:33.149Z,23.70
2018-11-22T17:20:32.383Z,21.77
2018-11-22T17:25:32.272Z,24.10
2018-11-22T17:30:34.352Z,25.33
2018-11-22T17:35:33.155Z,23.33
2018-11-22T17:40:36.268Z,24.60
2018-11-22T17:45:36.499Z,25.70
2018-11-22T17:50:36.927Z,26.37
2018-11-22T17:55:35.855Z,25.60
2018-11-22T18:00:38.766Z,23.23
2018-11-22T18:05:37.655Z,22.33
2018-11-22T18:10:38.097Z,26.07
2018-11-22T18:15:40.691Z,26.53
2018-11-22T18:20:39.396Z,27.47
2018-11-22T18:25:38.057Z,24.90
2018-11-22T18:30:36.688Z,26.77
2018-11-22T18:35:35.378Z,27.70
2018-11-22T18:40:35.528Z,27.40
2018-11-22T18:45:35.570Z,25.57
2018-11-22T18:50:34.917Z,26.23
2018-11-22T18:55:33.554Z,26.97
2018-11-22T19:00:35.091Z,27.17
2018-11-22T19:05:33.949Z,23.60
2018-11-22T19:10:33.996Z,23.97
2018-11-22T19:15:34.028Z,25.83
2018-11-22T19:20:34.537Z,25.00
2018-11-22T19:25:33.275Z,25.40
2018-11-22T19:30:37.417Z,23.97
2018-11-22T19:35:33.534Z,24.30
2018-11-22T19:40:33.775Z,22.73
2018-11-22T19:45:34.018Z,25.43
2018-11-22T19:50:33.031Z,21.90
2018-11-22T19:55:32.857Z,22.97
2018-11-22T20:00:31.656Z,23.97
2018-11-22T20:05:31.486Z,23.80
2018-11-22T20:10:31.524Z,23.20
2018-11-22T20:15:30.425Z,22.10
2018-11-22T20:20:29.349Z,21.27
2018-11-22T20:25:27.977Z,23.40
2018-11-22T20:30:29.387Z,21.97
2018-11-22T20:35:28.619Z,22.07
2018-11-22T20:40:27.916Z,20.00
2018-11-22T20:45:27.251Z,20.20
2018-11-22T20:50:26.956Z,21.10
2018-11-22T20:55:27.213Z,19.07
2018-11-22T21:00:27.270Z,17.97
2018-11-22T21:05:26.447Z,19.20
2018-11-22T21:10:26.367Z,19.23
2018-11-22T21:15:27.346Z,16.50
2018-11-22T21:20:28.949Z,17.57
2018-11-22T21:25:27.832Z,18.57
2018-11-22T21:30:30.745Z,19.80
2018-11-22T21:35:29.636Z,16.40
2018-11-22T21:40:28.956Z,19.47
2018-11-22T21:45:28.065Z,16.87
2018-11-22T21:50:27.529Z,18.73
2018-11-22T21:55:27.408Z,16.57
2018-11-22T22:00:31.119Z,19.17
2018-11-22T22:05:29.825Z,17.63
2018-11-22T22:10:28.470Z,16.20
2018-11-22T22:15:28.452Z,16.40
2018-11-22T22:20:30.736Z,15.93
2018-11-22T22:25:29.747Z,15.63
2018-11-22T22:30:29.883Z,15.30
2018-11-22T22:35:28.531Z,14.83
2018-11-22T22:40:28.011Z,15.93
2018-11-22T22:45:27.827Z,15.00
2018-11-22T22:50:27.557Z,15.60
2018-11-22T22:55:26.892Z,15.30
2018-11-22T23:00:31.788Z,15.77
2018-11-22T23:05:30.837Z,17.07
2018-11-22T23:10:29.475Z,17.00
2018-11-22T23:15:29.201Z,17.03
2018-11-22T23:20:29.329Z,16.97
2018-11-22T23:25:28.511Z,17.40
2018-11-22T23:30:28.540Z,15.83
2018-11-22T23:35:27.193Z,16.30
2018-11-22T23:40:27.284Z,16.93
2018-11-22T23:45:27.407Z,18.90
2018-11-22T23:50:27.554Z,17.03
2018-11-22T23:55:26.300Z,16.40
